Terminal Aerodrome Forecast
Issued by NWS

Home | Current Version | Previous Version | Text Only | Print | Product List | Glossary On
Versions: 1 2 3 4 5 6 7 8 9 10 11 12
000
FTUS43 KGRB 290534
TAFOSH
TAF
KOSH 290534Z 2906/3006 18005KT P6SM SCT040 BKN250
     FM290900 20004KT 6SM BR BKN035 OVC050
      TEMPO 2909/2911 5SM -SHRA OVC030
     FM291100 26008KT P6SM SKC
     FM291300 26013G25KT P6SM SCT070
     FM291600 26020G32KT P6SM SCT100
     FM300000 25012G20KT P6SM SKC=

USA.gov is the U.S. government's official web portal to all federal, state and local government web resources and services.